createdAt,value
2022-08-05T00:01:57.101Z,100107.09
2022-08-05T00:04:37.678Z,100077.16
2022-08-05T00:07:26.902Z,100041.00
2022-08-05T00:09:59.108Z,100037.84
2022-08-05T00:12:31.120Z,100085.25
2022-08-05T00:15:54.912Z,100156.94
2022-08-05T00:17:49.772Z,100229.34
2022-08-05T00:20:20.524Z,100264.81
2022-08-05T00:22:57.331Z,100243.09
2022-08-05T00:25:45.645Z,100260.06
2022-08-05T00:28:21.123Z,100318.09
2022-08-05T00:31:04.094Z,100331.84
2022-08-05T00:34:54.018Z,100327.47
2022-08-05T00:37:11.941Z,100312.19
2022-08-05T00:39:14.487Z,100279.19
2022-08-05T00:41:55.628Z,100245.50
2022-08-05T00:44:30.841Z,100277.00
2022-08-05T00:47:02.205Z,100277.63
2022-08-05T00:49:44.785Z,100269.41
2022-08-05T00:52:28.341Z,100272.22
2022-08-05T00:54:58.591Z,100278.84
2022-08-05T00:57:31.881Z,100284.72
2022-08-05T01:00:20.426Z,100312.06
2022-08-05T01:02:51.450Z,100341.91
2022-08-05T01:05:27.511Z,100357.09
2022-08-05T01:08:30.291Z,100328.19
2022-08-05T01:10:53.869Z,100311.56
2022-08-05T01:13:57.098Z,100303.78
2022-08-05T01:16:27.299Z,100307.06
2022-08-05T01:19:02.077Z,100304.47
2022-08-05T01:21:59.946Z,100296.03
2022-08-05T01:24:47.747Z,100290.28
2022-08-05T01:27:33.064Z,100282.84
2022-08-05T01:30:17.771Z,100298.22
2022-08-05T01:32:52.210Z,100286.72
2022-08-05T01:35:51.060Z,100277.59
2022-08-05T01:38:26.927Z,100272.16
2022-08-05T01:41:01.922Z,100251.88
2022-08-05T01:43:34.881Z,100247.56
2022-08-05T01:46:16.443Z,100246.78
2022-08-05T01:48:58.649Z,100249.00
2022-08-05T01:51:29.628Z,100261.44
2022-08-05T01:54:02.234Z,100260.19
2022-08-05T01:58:10.213Z,100272.44
2022-08-05T01:59:26.015Z,100264.03
2022-08-05T02:02:01.157Z,100264.53
2022-08-05T02:04:32.670Z,100260.34
2022-08-05T02:07:03.533Z,100256.06
2022-08-05T02:09:35.775Z,100260.56
2022-08-05T02:12:10.784Z,100260.41
2022-08-05T02:14:47.001Z,100269.28
2022-08-05T02:18:27.884Z,100261.56
2022-08-05T02:20:22.809Z,100277.50
2022-08-05T02:23:00.024Z,100268.19
2022-08-05T02:25:48.876Z,100283.38
2022-08-05T02:28:28.824Z,100278.09
2022-08-05T02:31:05.059Z,100272.13
2022-08-05T02:33:45.037Z,100284.97
2022-08-05T02:36:21.846Z,100286.19
2022-08-05T02:38:59.552Z,100282.25
2022-08-05T02:41:36.392Z,100294.63
2022-08-05T02:44:14.920Z,100298.53
2022-08-05T02:46:59.810Z,100284.59
2022-08-05T02:49:36.615Z,100282.44
2022-08-05T02:52:13.620Z,100296.38
2022-08-05T02:55:01.915Z,100298.53
2022-08-05T02:58:11.717Z,100302.56
2022-08-05T03:00:27.253Z,100308.34
2022-08-05T03:02:59.165Z,100325.06
2022-08-05T03:06:53.576Z,100331.94
2022-08-05T03:08:29.669Z,100347.34
2022-08-05T03:11:53.400Z,100352.09
2022-08-05T03:13:51.695Z,100349.41
2022-08-05T03:16:32.976Z,100344.03
2022-08-05T03:19:12.598Z,100335.78
2022-08-05T03:21:49.830Z,100312.84
2022-08-05T03:24:29.280Z,100297.53
2022-08-05T03:27:00.092Z,100264.78
2022-08-05T03:29:45.459Z,100272.56
2022-08-05T03:32:20.670Z,100278.41
2022-08-05T03:34:51.692Z,100291.88
2022-08-05T03:37:27.014Z,100301.50
2022-08-05T03:40:03.943Z,100303.50
2022-08-05T03:42:51.405Z,100292.00
2022-08-05T03:45:23.304Z,100312.16
2022-08-05T03:47:56.969Z,100342.91
2022-08-05T03:50:28.178Z,100348.34
2022-08-05T03:55:34.099Z,100336.00
2022-08-05T03:56:17.228Z,100349.81
2022-08-05T03:58:59.875Z,100348.22
2022-08-05T04:01:32.143Z,100320.44
2022-08-05T04:04:09.098Z,100328.88
2022-08-05T04:06:47.832Z,100335.38
2022-08-05T04:09:26.326Z,100331.91
2022-08-05T04:11:57.272Z,100320.13
2022-08-05T04:14:29.745Z,100323.81
2022-08-05T04:17:02.145Z,100323.38
2022-08-05T04:19:44.315Z,100316.84
2022-08-05T04:22:15.530Z,100323.94
2022-08-05T04:24:53.264Z,100320.00
2022-08-05T04:27:41.751Z,100314.59
2022-08-05T04:30:14.162Z,100322.00
2022-08-05T04:32:44.207Z,100305.13
2022-08-05T04:35:19.623Z,100273.38
2022-08-05T04:38:01.061Z,100248.34
2022-08-05T04:40:36.745Z,100245.09
2022-08-05T04:43:07.023Z,100217.47
2022-08-05T04:45:48.129Z,100207.06
2022-08-05T04:48:27.438Z,100193.03
2022-08-05T04:51:02.552Z,100163.31
2022-08-05T04:53:39.420Z,100174.41
2022-08-05T04:56:32.765Z,100190.81
2022-08-05T04:59:01.237Z,100209.84
2022-08-05T05:02:08.160Z,100215.16
2022-08-05T05:04:44.025Z,100227.34
2022-08-05T05:07:17.590Z,100255.53
2022-08-05T05:09:47.546Z,100248.81
2022-08-05T05:12:19.545Z,100238.81
2022-08-05T05:14:50.569Z,100241.88
2022-08-05T05:17:24.178Z,100256.44
2022-08-05T05:19:56.587Z,100258.94
2022-08-05T05:22:27.003Z,100252.19
2022-08-05T05:24:59.989Z,100259.72
2022-08-05T05:27:44.614Z,100258.47
2022-08-05T05:30:29.881Z,100258.28
2022-08-05T05:33:09.148Z,100263.22
2022-08-05T05:35:47.477Z,100272.75
2022-08-05T05:38:22.614Z,100287.13
2022-08-05T05:40:57.238Z,100299.75
2022-08-05T05:43:58.211Z,100312.63
2022-08-05T05:46:19.004Z,100307.13
2022-08-05T05:48:51.117Z,100316.34
2022-08-05T05:51:23.925Z,100315.22
2022-08-05T05:53:58.935Z,100328.06
2022-08-05T05:56:33.161Z,100332.00
2022-08-05T05:59:07.776Z,100331.13
2022-08-05T06:01:39.325Z,100335.22
2022-08-05T06:04:12.062Z,100340.94
2022-08-05T06:06:46.427Z,100330.13
2022-08-05T06:09:25.669Z,100326.94
2022-08-05T06:12:01.336Z,100330.34
2022-08-05T06:14:34.981Z,100324.66
2022-08-05T06:17:21.675Z,100325.63
2022-08-05T06:19:56.678Z,100325.19
2022-08-05T06:22:33.481Z,100325.31
2022-08-05T06:25:24.579Z,100332.94
2022-08-05T06:28:10.447Z,100350.25
2022-08-05T06:30:44.895Z,100363.91
2022-08-05T06:33:19.101Z,100376.16
2022-08-05T06:36:07.872Z,100386.06
2022-08-05T06:38:38.289Z,100385.50
2022-08-05T06:41:16.456Z,100400.22
2022-08-05T06:43:58.763Z,100398.09
2022-08-05T06:46:32.540Z,100384.94
2022-08-05T06:49:07.535Z,100396.16
2022-08-05T06:51:40.843Z,100391.56
2022-08-05T06:54:10.329Z,100387.78
2022-08-05T06:56:54.442Z,100388.91
2022-08-05T06:59:38.859Z,100382.22
2022-08-05T07:02:14.238Z,100376.53
2022-08-05T07:04:44.280Z,100385.94
2022-08-05T07:07:15.656Z,100388.03
2022-08-05T07:09:58.219Z,100396.53
2022-08-05T07:12:40.400Z,100394.31
2022-08-05T07:15:34.477Z,100382.19
2022-08-05T07:18:29.331Z,100380.38
2022-08-05T07:21:04.821Z,100387.81
2022-08-05T07:23:34.964Z,100380.00
2022-08-05T07:26:09.926Z,100371.09
2022-08-05T07:28:43.291Z,100374.16
2022-08-05T07:31:14.640Z,100356.88
2022-08-05T07:33:47.826Z,100355.31
2022-08-05T07:36:20.274Z,100346.38
2022-08-05T07:38:54.602Z,100336.69
2022-08-05T07:42:14.242Z,100325.38
2022-08-05T07:44:18.939Z,100318.38
2022-08-05T07:46:50.390Z,100317.63
2022-08-05T07:49:23.063Z,100311.06
2022-08-05T07:51:54.456Z,100296.28
2022-08-05T07:54:31.207Z,100292.66
2022-08-05T07:57:17.788Z,100268.78
2022-08-05T07:59:53.613Z,100262.50
2022-08-05T08:02:31.401Z,100261.91
2022-08-05T08:05:19.540Z,100251.38
2022-08-05T08:07:59.698Z,100253.53
2022-08-05T08:10:30.140Z,100258.28
2022-08-05T08:12:59.945Z,100256.91
2022-08-05T08:16:33.670Z,100263.00
2022-08-05T08:18:21.268Z,100276.25
2022-08-05T08:21:03.201Z,100275.25
2022-08-05T08:24:01.328Z,100291.88
2022-08-05T08:26:27.138Z,100289.03
2022-08-05T08:29:02.285Z,100291.94
2022-08-05T08:31:49.196Z,100288.66
2022-08-05T08:34:18.948Z,100276.06
2022-08-05T08:37:04.798Z,100293.38
2022-08-05T08:39:37.549Z,100295.84
2022-08-05T08:42:22.499Z,100299.03
2022-08-05T08:45:20.946Z,100302.00
2022-08-05T08:48:07.050Z,100318.84
2022-08-05T08:51:22.205Z,100303.50
2022-08-05T08:53:44.954Z,100295.47
2022-08-05T08:56:15.007Z,100294.59
2022-08-05T08:58:48.528Z,100293.69
2022-08-05T09:01:19.802Z,100294.34
2022-08-05T09:03:54.498Z,100295.59
2022-08-05T09:06:28.150Z,100291.81
2022-08-05T09:09:03.471Z,100299.66
2022-08-05T09:11:51.393Z,100310.94
2022-08-05T09:14:57.403Z,100320.81
2022-08-05T09:17:41.326Z,100340.38
2022-08-05T09:20:08.492Z,100348.13
2022-08-05T09:23:18.875Z,100352.09
2022-08-05T09:26:02.612Z,100349.19
2022-08-05T09:28:36.518Z,100337.03
2022-08-05T09:31:22.926Z,100333.44
2022-08-05T09:34:01.442Z,100327.19
2022-08-05T09:36:55.823Z,100340.50
2022-08-05T09:39:45.613Z,100344.03
2022-08-05T09:42:23.911Z,100355.34
2022-08-05T09:45:17.507Z,100356.28
2022-08-05T09:47:56.189Z,100363.81
2022-08-05T09:50:44.477Z,100364.53
2022-08-05T09:53:25.945Z,100350.13
2022-08-05T09:56:11.390Z,100349.69
2022-08-05T09:58:59.125Z,100366.72
2022-08-05T10:01:32.378Z,100371.50
2022-08-05T10:04:10.290Z,100376.28
2022-08-05T10:06:41.101Z,100378.88
2022-08-05T10:09:28.438Z,100380.31
2022-08-05T10:12:18.639Z,100378.84
2022-08-05T10:15:34.443Z,100393.88
2022-08-05T10:18:16.725Z,100400.94
2022-08-05T10:20:49.716Z,100403.66
2022-08-05T10:23:50.909Z,100407.22
2022-08-05T10:26:15.242Z,100408.59
2022-08-05T10:28:46.346Z,100408.69
2022-08-05T10:32:48.606Z,100399.16
2022-08-05T10:34:11.084Z,100404.69
2022-08-05T10:36:44.136Z,100398.69
2022-08-05T10:39:24.217Z,100401.09
2022-08-05T10:42:01.639Z,100409.94
2022-08-05T10:44:34.127Z,100404.09
2022-08-05T10:47:26.517Z,100418.53
2022-08-05T10:50:20.519Z,100417.31
2022-08-05T10:53:02.556Z,100412.31
2022-08-05T10:56:03.785Z,100420.19
2022-08-05T10:58:23.208Z,100422.66
2022-08-05T11:01:11.487Z,100414.19
2022-08-05T11:04:03.081Z,100404.38
2022-08-05T11:06:36.357Z,100407.94
2022-08-05T11:09:32.437Z,100403.97
2022-08-05T11:12:42.258Z,100403.13
2022-08-05T11:15:20.240Z,100398.78
2022-08-05T11:17:56.740Z,100396.75
2022-08-05T11:20:43.849Z,100390.66
2022-08-05T11:24:04.182Z,100400.94
2022-08-05T11:26:49.653Z,100404.94
2022-08-05T11:29:38.097Z,100409.94
2022-08-05T11:32:26.298Z,100410.31
2022-08-05T11:34:56.344Z,100415.50
2022-08-05T11:38:30.566Z,100412.13
2022-08-05T11:41:35.699Z,100424.53
2022-08-05T11:44:05.579Z,100429.16
2022-08-05T11:46:58.311Z,100440.03
2022-08-05T11:49:28.812Z,100448.94
2022-08-05T11:52:08.730Z,100438.22
2022-08-05T11:54:43.580Z,100446.31
2022-08-05T11:57:25.902Z,100456.47
2022-08-05T11:59:56.840Z,100459.91
2022-08-05T12:02:33.172Z,100466.25
2022-08-05T12:05:07.582Z,100474.31
2022-08-05T12:08:07.900Z,100479.94
2022-08-05T12:10:45.326Z,100484.31
2022-08-05T12:13:47.829Z,100503.47
2022-08-05T12:16:15.462Z,100504.63
2022-08-05T12:18:49.593Z,100514.25
2022-08-05T12:21:26.741Z,100537.44
2022-08-05T12:24:04.253Z,100540.88
2022-08-05T12:26:36.342Z,100530.78
2022-08-05T12:29:11.866Z,100518.50
2022-08-05T12:31:53.125Z,100534.28
2022-08-05T12:34:26.838Z,100541.28
2022-08-05T12:36:57.677Z,100547.16
2022-08-05T12:39:34.480Z,100534.44
2022-08-05T12:42:14.767Z,100536.28
2022-08-05T12:44:47.898Z,100543.56
2022-08-05T12:47:30.462Z,100551.81
2022-08-05T12:50:03.594Z,100558.69
2022-08-05T12:52:42.484Z,100572.59
2022-08-05T12:55:25.103Z,100571.13
2022-08-05T12:58:48.268Z,100577.88
2022-08-05T13:02:04.164Z,100586.47
2022-08-05T13:03:42.877Z,100577.69
2022-08-05T13:06:19.744Z,100577.69
2022-08-05T13:08:51.567Z,100592.00
2022-08-05T13:11:57.933Z,100594.59
2022-08-05T13:14:25.030Z,100587.59
2022-08-05T13:17:12.061Z,100606.81
2022-08-05T13:19:52.455Z,100596.81
2022-08-05T13:22:28.338Z,100609.78
2022-08-05T13:25:00.763Z,100624.34
2022-08-05T13:27:38.674Z,100626.44
2022-08-05T13:30:35.460Z,100632.56
2022-08-05T13:33:08.933Z,100636.53
2022-08-05T13:36:02.009Z,100625.38
2022-08-05T13:38:36.225Z,100634.19
2022-08-05T13:41:08.236Z,100628.31
2022-08-05T13:43:44.189Z,100620.91
2022-08-05T13:46:30.715Z,100620.75
2022-08-05T13:49:11.614Z,100617.78
2022-08-05T13:51:46.717Z,100622.25
2022-08-05T13:54:17.120Z,100629.53
2022-08-05T13:56:51.990Z,100634.09
2022-08-05T13:59:24.366Z,100636.38
2022-08-05T14:01:56.435Z,100635.13
2022-08-05T14:04:49.827Z,100629.69
2022-08-05T14:07:56.907Z,100636.28
2022-08-05T14:10:14.152Z,100634.34
2022-08-05T14:12:49.334Z,100637.94
2022-08-05T14:16:05.217Z,100645.09
2022-08-05T14:18:17.528Z,100651.78
2022-08-05T14:20:55.105Z,100649.19
2022-08-05T14:23:33.625Z,100654.19
2022-08-05T14:26:06.340Z,100652.00
2022-08-05T14:28:35.976Z,100669.53
2022-08-05T14:32:03.704Z,100663.47
2022-08-05T14:34:12.148Z,100672.88
2022-08-05T14:36:44.164Z,100669.09
2022-08-05T14:39:23.282Z,100667.59
2022-08-05T14:42:19.290Z,100677.13
2022-08-05T14:44:42.502Z,100676.34
2022-08-05T14:47:12.293Z,100680.44
2022-08-05T14:49:59.609Z,100683.25
2022-08-05T14:52:51.840Z,100691.66
2022-08-05T14:55:22.192Z,100684.47
2022-08-05T14:57:54.459Z,100694.47
2022-08-05T15:00:28.366Z,100686.91
2022-08-05T15:02:59.365Z,100698.88
2022-08-05T15:05:29.846Z,100701.84
2022-08-05T15:08:58.216Z,100692.28
2022-08-05T15:11:10.629Z,100686.34
2022-08-05T15:13:46.059Z,100696.94
2022-08-05T15:16:19.709Z,100704.03
2022-08-05T15:18:51.650Z,100715.41
2022-08-05T15:21:21.952Z,100708.31
2022-08-05T15:23:56.310Z,100715.53
2022-08-05T15:26:32.058Z,100719.84
2022-08-05T15:29:02.512Z,100716.75
2022-08-05T15:31:34.838Z,100720.91
2022-08-05T15:34:32.376Z,100717.94
2022-08-05T15:36:53.978Z,100730.47
2022-08-05T15:41:03.178Z,100737.09
2022-08-05T15:42:54.110Z,100740.28
2022-08-05T15:47:35.958Z,100749.84
2022-08-05T15:50:06.186Z,100746.41
2022-08-05T15:52:51.691Z,100740.78
2022-08-05T15:56:01.460Z,100741.25
2022-08-05T15:58:16.511Z,100749.13
2022-08-05T16:01:03.546Z,100740.63
2022-08-05T16:03:35.791Z,100741.09
2022-08-05T16:06:11.977Z,100741.25
2022-08-05T16:08:41.709Z,100743.34
2022-08-05T16:11:14.200Z,100735.63
2022-08-05T16:13:44.071Z,100734.00
2022-08-05T16:16:15.325Z,100743.53
2022-08-05T16:18:54.711Z,100750.50
2022-08-05T16:21:58.545Z,100756.59
2022-08-05T16:24:40.186Z,100760.56
2022-08-05T16:27:07.353Z,100749.19
2022-08-05T16:29:37.906Z,100754.94
2022-08-05T16:32:19.358Z,100750.91
2022-08-05T16:34:52.841Z,100756.16
2022-08-05T16:38:02.845Z,100758.03
2022-08-05T16:40:13.677Z,100754.94
2022-08-05T16:42:57.436Z,100752.97
2022-08-05T16:46:07.098Z,100754.38
2022-08-05T16:48:25.119Z,100742.34
2022-08-05T16:50:55.923Z,100755.41
2022-08-05T16:53:32.403Z,100750.03
2022-08-05T16:56:14.883Z,100758.00
2022-08-05T16:58:46.957Z,100759.84
2022-08-05T17:01:16.485Z,100761.97
2022-08-05T17:03:48.524Z,100754.97
2022-08-05T17:06:17.982Z,100760.41
2022-08-05T17:08:53.132Z,100753.88
2022-08-05T17:11:25.410Z,100767.09
2022-08-05T17:14:05.178Z,100778.66
2022-08-05T17:16:36.763Z,100770.81
2022-08-05T17:19:09.754Z,100776.78
2022-08-05T17:21:40.963Z,100772.63
2022-08-05T17:24:35.099Z,100769.78
2022-08-05T17:27:08.661Z,100766.53
2022-08-05T17:29:41.529Z,100780.91
2022-08-05T17:32:16.851Z,100787.47
2022-08-05T17:34:47.900Z,100792.53
2022-08-05T17:37:41.375Z,100790.59
2022-08-05T17:40:12.697Z,100792.09
2022-08-05T17:42:46.464Z,100788.97
2022-08-05T17:45:25.136Z,100788.75
2022-08-05T17:48:08.055Z,100792.09
2022-08-05T17:50:37.986Z,100784.72
2022-08-05T17:53:08.395Z,100790.19
2022-08-05T17:55:39.750Z,100777.69
2022-08-05T17:58:12.457Z,100793.31
2022-08-05T18:00:50.554Z,100801.50
2022-08-05T18:06:15.465Z,100808.59
2022-08-05T18:08:52.491Z,100812.03
2022-08-05T18:11:32.889Z,100809.84
2022-08-05T18:14:07.272Z,100814.94
2022-08-05T18:16:51.091Z,100818.03
2022-08-05T18:19:25.911Z,100813.34
2022-08-05T18:22:07.128Z,100822.28
2022-08-05T18:24:39.908Z,100822.47
2022-08-05T18:27:18.170Z,100821.06
2022-08-05T18:29:54.038Z,100822.13
2022-08-05T18:32:28.353Z,100829.50
2022-08-05T18:34:59.409Z,100834.25
2022-08-05T18:37:34.321Z,100828.94
2022-08-05T18:41:51.034Z,100833.41
2022-08-05T18:43:00.799Z,100843.66
2022-08-05T18:45:41.264Z,100848.97
2022-08-05T18:48:30.183Z,100851.66
2022-08-05T18:52:06.452Z,100857.72
2022-08-05T18:54:11.710Z,100865.19
2022-08-05T18:56:41.045Z,100858.25
2022-08-05T18:59:41.919Z,100860.38
2022-08-05T19:01:59.833Z,100871.22
2022-08-05T19:04:31.830Z,100874.03
2022-08-05T19:07:02.246Z,100877.44
2022-08-05T19:09:40.280Z,100887.31
2022-08-05T19:12:11.435Z,100895.22
2022-08-05T19:15:00.499Z,100900.00
2022-08-05T19:17:59.531Z,100901.44
2022-08-05T19:20:22.981Z,100903.72
2022-08-05T19:22:53.110Z,100906.75
2022-08-05T19:25:29.575Z,100915.75
2022-08-05T19:27:59.651Z,100923.06
2022-08-05T19:30:29.395Z,100928.44
2022-08-05T19:32:58.806Z,100939.34
2022-08-05T19:35:56.413Z,100946.63
2022-08-05T19:38:26.482Z,100957.22
2022-08-05T19:40:56.201Z,100953.31
2022-08-05T19:44:06.191Z,100957.81
2022-08-05T19:46:29.698Z,100961.59
2022-08-05T19:49:01.036Z,100972.09
2022-08-05T19:52:04.324Z,100973.31
2022-08-05T19:54:31.410Z,100982.69
2022-08-05T19:57:02.331Z,100984.34
2022-08-05T19:59:59.352Z,100986.00
2022-08-05T20:02:26.991Z,100990.81
2022-08-05T20:04:59.036Z,101008.88
2022-08-05T20:07:46.394Z,101002.94
2022-08-05T20:10:17.269Z,101017.09
2022-08-05T20:12:49.458Z,101015.06
2022-08-05T20:15:48.406Z,101027.13
2022-08-05T20:18:33.622Z,101023.56
2022-08-05T20:21:00.002Z,101026.53
2022-08-05T20:23:39.780Z,101030.59
2022-08-05T20:26:19.114Z,101037.38
2022-08-05T20:28:50.518Z,101032.28
2022-08-05T20:31:21.628Z,101037.13
2022-08-05T20:33:52.831Z,101038.38
2022-08-05T20:36:24.249Z,101054.41
2022-08-05T20:38:58.231Z,101060.41
2022-08-05T20:41:44.500Z,101065.25
2022-08-05T20:44:29.025Z,101065.34
2022-08-05T20:47:00.377Z,101074.97
2022-08-05T20:49:30.074Z,101067.81
2022-08-05T20:52:07.974Z,101071.38
2022-08-05T20:54:42.693Z,101074.25
2022-08-05T20:57:43.543Z,101079.47
2022-08-05T21:00:40.459Z,101077.13
2022-08-05T21:03:09.117Z,101083.56
2022-08-05T21:05:53.752Z,101087.19
2022-08-05T21:08:35.971Z,101087.66
2022-08-05T21:12:08.943Z,101092.47
2022-08-05T21:14:05.409Z,101103.28
2022-08-05T21:16:35.408Z,101099.72
2022-08-05T21:19:06.258Z,101104.94
2022-08-05T21:21:39.831Z,101104.09
2022-08-05T21:24:20.070Z,101111.31
2022-08-05T21:26:57.838Z,101102.97
2022-08-05T21:29:32.024Z,101104.16
2022-08-05T21:32:02.322Z,101109.00
2022-08-05T21:34:33.139Z,101111.44
2022-08-05T21:37:05.346Z,101111.81
2022-08-05T21:39:40.471Z,101108.22
2022-08-05T21:42:30.573Z,101116.22
2022-08-05T21:45:02.565Z,101123.06
2022-08-05T21:47:56.723Z,101124.22
2022-08-05T21:50:22.860Z,101135.03
2022-08-05T21:52:52.345Z,101138.63
2022-08-05T21:55:42.782Z,101130.66
2022-08-05T21:58:14.529Z,101136.66
2022-08-05T22:00:50.968Z,101134.66
2022-08-05T22:03:52.560Z,101138.25
2022-08-05T22:06:10.452Z,101128.69
2022-08-05T22:08:42.632Z,101137.47
2022-08-05T22:11:15.477Z,101138.28
2022-08-05T22:14:33.608Z,101145.06
2022-08-05T22:16:41.905Z,101149.84
2022-08-05T22:20:00.166Z,101157.03
2022-08-05T22:22:10.768Z,101155.81
2022-08-05T22:24:54.255Z,101159.00
2022-08-05T22:28:08.438Z,101158.63
2022-08-05T22:30:32.137Z,101158.63
2022-08-05T22:33:15.401Z,101156.22
2022-08-05T22:35:48.786Z,101163.00
2022-08-05T22:38:19.754Z,101152.22
2022-08-05T22:40:54.910Z,101165.00
2022-08-05T22:43:36.252Z,101165.00
2022-08-05T22:46:12.015Z,101166.56
2022-08-05T22:48:43.905Z,101174.16
2022-08-05T22:51:22.400Z,101164.19
2022-08-05T22:53:55.144Z,101173.75
2022-08-05T22:56:29.676Z,101172.16
2022-08-05T22:59:03.228Z,101175.75
2022-08-05T23:02:05.755Z,101174.56
2022-08-05T23:04:37.369Z,101175.75
2022-08-05T23:07:07.717Z,101182.50
2022-08-05T23:09:58.159Z,101184.13
2022-08-05T23:12:28.916Z,101189.28
2022-08-05T23:15:03.487Z,101197.66
2022-08-05T23:17:59.591Z,101181.31
2022-08-05T23:20:25.704Z,101189.63
2022-08-05T23:22:56.096Z,101200.81
2022-08-05T23:25:51.779Z,101204.78
2022-08-05T23:28:17.299Z,101204.75
2022-08-05T23:30:53.679Z,101202.34
2022-08-05T23:34:04.952Z,101204.31
2022-08-05T23:36:16.383Z,101205.91
2022-08-05T23:38:46.139Z,101211.84
2022-08-05T23:41:15.650Z,101209.44
2022-08-05T23:44:04.580Z,101209.44
2022-08-05T23:46:37.431Z,101213.41
2022-08-05T23:49:16.724Z,101223.38
2022-08-05T23:51:59.853Z,101222.53
2022-08-05T23:54:34.101Z,101234.09
2022-08-05T23:57:08.872Z,101229.72
